sensor_id;sensor_type;location;lat;lon;timestamp;temperature;humidity
22081;DHT22;11207;59.512;18.050;2023-07-29T00:00:56;12.70;99.90
22081;DHT22;11207;59.512;18.050;2023-07-29T00:03:22;12.80;99.90
22081;DHT22;11207;59.512;18.050;2023-07-29T00:05:48;12.70;99.90
22081;DHT22;11207;59.512;18.050;2023-07-29T00:08:13;12.80;99.90
22081;DHT22;11207;59.512;18.050;2023-07-29T00:10:39;12.70;99.90
22081;DHT22;11207;59.512;18.050;2023-07-29T00:13:05;12.80;99.90
22081;DHT22;11207;59.512;18.050;2023-07-29T00:15:31;12.90;99.90
22081;DHT22;11207;59.512;18.050;2023-07-29T00:17:57;12.80;99.90
22081;DHT22;11207;59.512;18.050;2023-07-29T00:20:22;12.90;99.90
22081;DHT22;11207;59.512;18.050;2023-07-29T00:22:48;12.90;99.90
22081;DHT22;11207;59.512;18.050;2023-07-29T00:25:16;13.00;99.90
22081;DHT22;11207;59.512;18.050;2023-07-29T00:27:42;13.00;99.90
22081;DHT22;11207;59.512;18.050;2023-07-29T00:30:08;13.00;99.90
22081;DHT22;11207;59.512;18.050;2023-07-29T00:32:35;13.10;99.90
22081;DHT22;11207;59.512;18.050;2023-07-29T00:35:01;13.20;99.90
22081;DHT22;11207;59.512;18.050;2023-07-29T00:37:28;13.00;99.90
22081;DHT22;11207;59.512;18.050;2023-07-29T00:39:54;13.10;99.90
22081;DHT22;11207;59.512;18.050;2023-07-29T00:42:20;13.10;99.90
22081;DHT22;11207;59.512;18.050;2023-07-29T00:44:45;13.10;99.90
22081;DHT22;11207;59.512;18.050;2023-07-29T00:47:11;13.20;99.90
22081;DHT22;11207;59.512;18.050;2023-07-29T00:49:38;13.10;99.90
22081;DHT22;11207;59.512;18.050;2023-07-29T00:52:04;13.10;99.90
22081;DHT22;11207;59.512;18.050;2023-07-29T00:54:29;13.00;99.90
22081;DHT22;11207;59.512;18.050;2023-07-29T00:56:55;13.00;99.90
22081;DHT22;11207;59.512;18.050;2023-07-29T00:59:21;13.00;99.90
22081;DHT22;11207;59.512;18.050;2023-07-29T01:01:46;13.10;99.90
22081;DHT22;11207;59.512;18.050;2023-07-29T01:04:12;13.10;99.90
22081;DHT22;11207;59.512;18.050;2023-07-29T01:06:54;13.10;99.90
22081;DHT22;11207;59.512;18.050;2023-07-29T01:12:35;13.00;99.90
22081;DHT22;11207;59.512;18.050;2023-07-29T01:17:52;12.90;99.90
22081;DHT22;11207;59.512;18.050;2023-07-29T01:20:19;12.80;99.90
22081;DHT22;11207;59.512;18.050;2023-07-29T01:22:46;12.80;99.90
22081;DHT22;11207;59.512;18.050;2023-07-29T01:25:13;12.80;99.90
22081;DHT22;11207;59.512;18.050;2023-07-29T01:27:39;12.80;99.90
22081;DHT22;11207;59.512;18.050;2023-07-29T01:30:05;12.70;99.90
22081;DHT22;11207;59.512;18.050;2023-07-29T01:32:54;12.80;99.90
22081;DHT22;11207;59.512;18.050;2023-07-29T01:35:28;12.80;99.90
22081;DHT22;11207;59.512;18.050;2023-07-29T01:37:57;12.70;99.90
22081;DHT22;11207;59.512;18.050;2023-07-29T01:40:27;12.60;99.90
22081;DHT22;11207;59.512;18.050;2023-07-29T01:42:53;12.80;99.90
22081;DHT22;11207;59.512;18.050;2023-07-29T01:45:23;12.80;99.90
22081;DHT22;11207;59.512;18.050;2023-07-29T01:47:49;12.80;99.90
22081;DHT22;11207;59.512;18.050;2023-07-29T01:50:15;12.80;99.90
22081;DHT22;11207;59.512;18.050;2023-07-29T01:52:41;12.80;99.90
22081;DHT22;11207;59.512;18.050;2023-07-29T01:55:06;13.00;99.90
22081;DHT22;11207;59.512;18.050;2023-07-29T01:57:32;12.80;99.90
22081;DHT22;11207;59.512;18.050;2023-07-29T01:59:58;12.80;99.90
22081;DHT22;11207;59.512;18.050;2023-07-29T02:02:24;12.80;99.90
22081;DHT22;11207;59.512;18.050;2023-07-29T02:04:49;12.70;99.90
22081;DHT22;11207;59.512;18.050;2023-07-29T02:07:17;12.80;99.90
22081;DHT22;11207;59.512;18.050;2023-07-29T02:09:44;12.80;99.90
22081;DHT22;11207;59.512;18.050;2023-07-29T02:12:10;12.90;99.90
22081;DHT22;11207;59.512;18.050;2023-07-29T02:14:35;12.80;99.90
22081;DHT22;11207;59.512;18.050;2023-07-29T02:17:01;12.90;99.90
22081;DHT22;11207;59.512;18.050;2023-07-29T02:19:26;12.80;99.90
22081;DHT22;11207;59.512;18.050;2023-07-29T02:21:52;12.90;99.90
22081;DHT22;11207;59.512;18.050;2023-07-29T02:24:18;12.90;99.90
22081;DHT22;11207;59.512;18.050;2023-07-29T02:26:43;12.90;99.90
22081;DHT22;11207;59.512;18.050;2023-07-29T02:29:09;12.90;99.90
22081;DHT22;11207;59.512;18.050;2023-07-29T02:31:34;12.90;99.90
22081;DHT22;11207;59.512;18.050;2023-07-29T02:34:02;12.90;99.90
22081;DHT22;11207;59.512;18.050;2023-07-29T02:36:27;13.00;99.90
22081;DHT22;11207;59.512;18.050;2023-07-29T02:38:53;12.90;99.90
22081;DHT22;11207;59.512;18.050;2023-07-29T02:41:18;12.80;99.90
22081;DHT22;11207;59.512;18.050;2023-07-29T02:43:48;12.90;99.90
22081;DHT22;11207;59.512;18.050;2023-07-29T02:46:14;12.80;99.90
22081;DHT22;11207;59.512;18.050;2023-07-29T02:48:39;12.70;99.90
22081;DHT22;11207;59.512;18.050;2023-07-29T02:51:05;12.80;99.90
22081;DHT22;11207;59.512;18.050;2023-07-29T02:53:30;12.90;99.90
22081;DHT22;11207;59.512;18.050;2023-07-29T02:55:56;12.90;99.90
22081;DHT22;11207;59.512;18.050;2023-07-29T02:58:21;13.00;99.90
22081;DHT22;11207;59.512;18.050;2023-07-29T03:00:47;12.90;99.90
22081;DHT22;11207;59.512;18.050;2023-07-29T03:03:14;13.00;99.90
22081;DHT22;11207;59.512;18.050;2023-07-29T03:05:39;13.00;99.90
22081;DHT22;11207;59.512;18.050;2023-07-29T03:08:05;13.00;99.90
22081;DHT22;11207;59.512;18.050;2023-07-29T03:10:31;13.00;99.90
22081;DHT22;11207;59.512;18.050;2023-07-29T03:12:56;13.00;99.90
22081;DHT22;11207;59.512;18.050;2023-07-29T03:15:26;13.00;99.90
22081;DHT22;11207;59.512;18.050;2023-07-29T03:17:52;13.00;99.90
22081;DHT22;11207;59.512;18.050;2023-07-29T03:20:19;13.00;99.90
22081;DHT22;11207;59.512;18.050;2023-07-29T03:22:45;13.10;99.90
22081;DHT22;11207;59.512;18.050;2023-07-29T03:25:11;13.20;99.90
22081;DHT22;11207;59.512;18.050;2023-07-29T03:27:36;13.20;99.90
22081;DHT22;11207;59.512;18.050;2023-07-29T03:30:03;13.10;99.90
22081;DHT22;11207;59.512;18.050;2023-07-29T03:32:29;13.10;99.90
22081;DHT22;11207;59.512;18.050;2023-07-29T03:34:55;13.10;99.90
22081;DHT22;11207;59.512;18.050;2023-07-29T03:37:20;13.10;99.90
22081;DHT22;11207;59.512;18.050;2023-07-29T03:39:47;13.20;99.90
22081;DHT22;11207;59.512;18.050;2023-07-29T03:42:12;13.10;99.90
22081;DHT22;11207;59.512;18.050;2023-07-29T03:44:38;13.20;99.90
22081;DHT22;11207;59.512;18.050;2023-07-29T03:47:05;13.20;99.90
22081;DHT22;11207;59.512;18.050;2023-07-29T03:49:31;13.20;99.90
22081;DHT22;11207;59.512;18.050;2023-07-29T03:51:56;13.20;99.90
22081;DHT22;11207;59.512;18.050;2023-07-29T03:54:22;13.30;99.90
22081;DHT22;11207;59.512;18.050;2023-07-29T03:56:48;13.40;99.90
22081;DHT22;11207;59.512;18.050;2023-07-29T03:59:13;13.40;99.90
22081;DHT22;11207;59.512;18.050;2023-07-29T04:01:39;13.40;99.90
22081;DHT22;11207;59.512;18.050;2023-07-29T04:04:04;13.40;99.90
22081;DHT22;11207;59.512;18.050;2023-07-29T04:06:30;13.50;99.90
22081;DHT22;11207;59.512;18.050;2023-07-29T04:08:56;13.60;99.90
22081;DHT22;11207;59.512;18.050;2023-07-29T04:11:23;13.50;99.90
22081;DHT22;11207;59.512;18.050;2023-07-29T04:13:48;13.60;99.90
22081;DHT22;11207;59.512;18.050;2023-07-29T04:16:14;13.50;99.90
22081;DHT22;11207;59.512;18.050;2023-07-29T04:18:39;13.60;99.90
22081;DHT22;11207;59.512;18.050;2023-07-29T04:21:05;13.60;99.90
22081;DHT22;11207;59.512;18.050;2023-07-29T04:23:31;13.70;99.90
22081;DHT22;11207;59.512;18.050;2023-07-29T04:25:56;13.80;99.90
22081;DHT22;11207;59.512;18.050;2023-07-29T04:28:22;13.70;99.90
22081;DHT22;11207;59.512;18.050;2023-07-29T04:30:47;13.80;99.90
22081;DHT22;11207;59.512;18.050;2023-07-29T04:33:13;13.90;99.90
22081;DHT22;11207;59.512;18.050;2023-07-29T04:35:38;14.00;99.90
22081;DHT22;11207;59.512;18.050;2023-07-29T04:38:04;14.00;99.90
22081;DHT22;11207;59.512;18.050;2023-07-29T04:40:32;14.10;99.90
22081;DHT22;11207;59.512;18.050;2023-07-29T04:43:00;14.00;99.90
22081;DHT22;11207;59.512;18.050;2023-07-29T04:45:28;14.10;99.90
22081;DHT22;11207;59.512;18.050;2023-07-29T04:47:55;14.20;99.90
22081;DHT22;11207;59.512;18.050;2023-07-29T04:50:20;14.20;99.90
22081;DHT22;11207;59.512;18.050;2023-07-29T04:52:46;14.30;99.90
22081;DHT22;11207;59.512;18.050;2023-07-29T04:55:11;14.40;99.90
22081;DHT22;11207;59.512;18.050;2023-07-29T04:57:37;14.60;99.90
22081;DHT22;11207;59.512;18.050;2023-07-29T05:00:03;14.80;99.90
22081;DHT22;11207;59.512;18.050;2023-07-29T05:02:29;14.90;99.90
22081;DHT22;11207;59.512;18.050;2023-07-29T05:04:55;15.10;99.90
22081;DHT22;11207;59.512;18.050;2023-07-29T05:07:22;15.30;99.90
22081;DHT22;11207;59.512;18.050;2023-07-29T05:09:48;15.40;99.90
22081;DHT22;11207;59.512;18.050;2023-07-29T05:12:14;15.50;99.90
22081;DHT22;11207;59.512;18.050;2023-07-29T05:14:39;15.50;99.90
22081;DHT22;11207;59.512;18.050;2023-07-29T05:17:05;15.60;99.90
22081;DHT22;11207;59.512;18.050;2023-07-29T05:19:31;15.70;99.90
22081;DHT22;11207;59.512;18.050;2023-07-29T05:21:57;15.90;99.90
22081;DHT22;11207;59.512;18.050;2023-07-29T05:24:23;16.00;99.90
22081;DHT22;11207;59.512;18.050;2023-07-29T05:26:49;16.10;99.90
22081;DHT22;11207;59.512;18.050;2023-07-29T05:29:14;16.40;99.90
22081;DHT22;11207;59.512;18.050;2023-07-29T05:31:40;16.60;99.90
22081;DHT22;11207;59.512;18.050;2023-07-29T05:34:06;16.80;99.90
22081;DHT22;11207;59.512;18.050;2023-07-29T05:36:31;16.90;99.90
22081;DHT22;11207;59.512;18.050;2023-07-29T05:38:57;16.80;99.90
22081;DHT22;11207;59.512;18.050;2023-07-29T05:41:23;16.80;99.90
22081;DHT22;11207;59.512;18.050;2023-07-29T05:43:48;16.80;99.90
22081;DHT22;11207;59.512;18.050;2023-07-29T05:46:14;16.80;99.90
22081;DHT22;11207;59.512;18.050;2023-07-29T05:48:40;16.70;99.90
22081;DHT22;11207;59.512;18.050;2023-07-29T05:51:05;16.80;99.90
22081;DHT22;11207;59.512;18.050;2023-07-29T05:53:31;16.90;99.90
22081;DHT22;11207;59.512;18.050;2023-07-29T05:55:57;16.70;99.90
22081;DHT22;11207;59.512;18.050;2023-07-29T05:58:22;16.80;99.90
22081;DHT22;11207;59.512;18.050;2023-07-29T06:00:48;16.80;99.90
22081;DHT22;11207;59.512;18.050;2023-07-29T06:03:14;16.90;99.90
22081;DHT22;11207;59.512;18.050;2023-07-29T06:05:39;17.00;99.90
22081;DHT22;11207;59.512;18.050;2023-07-29T06:08:05;17.10;99.90
22081;DHT22;11207;59.512;18.050;2023-07-29T06:10:30;17.10;99.90
22081;DHT22;11207;59.512;18.050;2023-07-29T06:12:56;17.30;99.90
22081;DHT22;11207;59.512;18.050;2023-07-29T06:15:22;17.30;99.90
22081;DHT22;11207;59.512;18.050;2023-07-29T06:17:48;17.50;99.90
22081;DHT22;11207;59.512;18.050;2023-07-29T06:20:14;17.50;99.90
22081;DHT22;11207;59.512;18.050;2023-07-29T06:22:41;17.60;99.90
22081;DHT22;11207;59.512;18.050;2023-07-29T06:25:07;17.60;99.90
22081;DHT22;11207;59.512;18.050;2023-07-29T06:27:33;17.70;99.90
22081;DHT22;11207;59.512;18.050;2023-07-29T06:29:59;17.80;99.90
22081;DHT22;11207;59.512;18.050;2023-07-29T06:32:25;17.80;99.90
22081;DHT22;11207;59.512;18.050;2023-07-29T06:34:51;17.90;99.90
22081;DHT22;11207;59.512;18.050;2023-07-29T06:37:19;18.10;99.90
22081;DHT22;11207;59.512;18.050;2023-07-29T06:39:45;18.20;99.90
22081;DHT22;11207;59.512;18.050;2023-07-29T06:42:11;18.30;99.90
22081;DHT22;11207;59.512;18.050;2023-07-29T06:44:37;18.40;99.90
22081;DHT22;11207;59.512;18.050;2023-07-29T06:47:02;18.30;99.90
22081;DHT22;11207;59.512;18.050;2023-07-29T06:49:28;18.50;99.90
22081;DHT22;11207;59.512;18.050;2023-07-29T06:51:53;18.60;99.90
22081;DHT22;11207;59.512;18.050;2023-07-29T06:54:24;18.70;99.90
22081;DHT22;11207;59.512;18.050;2023-07-29T06:56:49;18.80;99.90
22081;DHT22;11207;59.512;18.050;2023-07-29T06:59:15;18.90;99.90
22081;DHT22;11207;59.512;18.050;2023-07-29T07:01:40;18.90;99.90
22081;DHT22;11207;59.512;18.050;2023-07-29T07:04:06;18.90;99.90
22081;DHT22;11207;59.512;18.050;2023-07-29T07:06:31;19.00;99.90
22081;DHT22;11207;59.512;18.050;2023-07-29T07:08:57;19.10;99.90
22081;DHT22;11207;59.512;18.050;2023-07-29T07:11:23;19.20;99.90
22081;DHT22;11207;59.512;18.050;2023-07-29T07:13:48;19.30;99.90
22081;DHT22;11207;59.512;18.050;2023-07-29T07:16:14;19.40;99.90
22081;DHT22;11207;59.512;18.050;2023-07-29T07:18:39;19.50;99.90
22081;DHT22;11207;59.512;18.050;2023-07-29T07:21:05;19.60;99.90
22081;DHT22;11207;59.512;18.050;2023-07-29T07:23:30;19.70;99.90
22081;DHT22;11207;59.512;18.050;2023-07-29T07:25:56;19.80;99.90
22081;DHT22;11207;59.512;18.050;2023-07-29T07:28:22;19.90;99.90
22081;DHT22;11207;59.512;18.050;2023-07-29T07:30:47;20.00;99.90
22081;DHT22;11207;59.512;18.050;2023-07-29T07:33:13;20.10;99.90
22081;DHT22;11207;59.512;18.050;2023-07-29T07:35:38;20.30;99.90
22081;DHT22;11207;59.512;18.050;2023-07-29T07:38:04;20.50;99.90
22081;DHT22;11207;59.512;18.050;2023-07-29T07:40:33;20.30;99.90
22081;DHT22;11207;59.512;18.050;2023-07-29T07:42:58;20.60;99.90
22081;DHT22;11207;59.512;18.050;2023-07-29T07:45:24;20.70;99.90
22081;DHT22;11207;59.512;18.050;2023-07-29T07:47:55;20.80;99.90
22081;DHT22;11207;59.512;18.050;2023-07-29T07:50:21;21.00;99.90
22081;DHT22;11207;59.512;18.050;2023-07-29T07:52:47;21.10;99.90
22081;DHT22;11207;59.512;18.050;2023-07-29T07:55:13;21.20;99.90
22081;DHT22;11207;59.512;18.050;2023-07-29T07:57:38;21.40;99.90
22081;DHT22;11207;59.512;18.050;2023-07-29T08:00:05;21.50;99.90
22081;DHT22;11207;59.512;18.050;2023-07-29T08:02:31;21.60;99.90
22081;DHT22;11207;59.512;18.050;2023-07-29T08:04:57;21.50;99.90
22081;DHT22;11207;59.512;18.050;2023-07-29T08:07:22;21.60;99.90
22081;DHT22;11207;59.512;18.050;2023-07-29T08:09:48;21.80;99.90
22081;DHT22;11207;59.512;18.050;2023-07-29T08:12:13;22.10;99.90
22081;DHT22;11207;59.512;18.050;2023-07-29T08:14:39;22.00;99.90
22081;DHT22;11207;59.512;18.050;2023-07-29T08:17:04;22.20;99.90
22081;DHT22;11207;59.512;18.050;2023-07-29T08:19:30;22.40;99.90
22081;DHT22;11207;59.512;18.050;2023-07-29T08:21:55;22.50;99.90
22081;DHT22;11207;59.512;18.050;2023-07-29T08:24:21;22.60;99.90
22081;DHT22;11207;59.512;18.050;2023-07-29T08:26:47;22.80;99.90
22081;DHT22;11207;59.512;18.050;2023-07-29T08:29:12;22.80;99.90
22081;DHT22;11207;59.512;18.050;2023-07-29T08:31:39;22.70;99.90
22081;DHT22;11207;59.512;18.050;2023-07-29T08:34:04;22.80;99.90
22081;DHT22;11207;59.512;18.050;2023-07-29T08:36:30;23.10;99.90
22081;DHT22;11207;59.512;18.050;2023-07-29T08:38:55;23.20;99.90
22081;DHT22;11207;59.512;18.050;2023-07-29T08:41:37;23.30;99.90
22081;DHT22;11207;59.512;18.050;2023-07-29T08:44:11;23.50;99.90
22081;DHT22;11207;59.512;18.050;2023-07-29T08:46:39;23.70;99.90
22081;DHT22;11207;59.512;18.050;2023-07-29T08:49:05;23.80;99.90
22081;DHT22;11207;59.512;18.050;2023-07-29T08:51:31;23.90;99.90
22081;DHT22;11207;59.512;18.050;2023-07-29T08:53:58;24.00;99.90
22081;DHT22;11207;59.512;18.050;2023-07-29T08:56:24;24.40;99.90
22081;DHT22;11207;59.512;18.050;2023-07-29T08:58:51;24.40;99.90
22081;DHT22;11207;59.512;18.050;2023-07-29T09:01:17;24.40;99.90
22081;DHT22;11207;59.512;18.050;2023-07-29T09:03:43;24.40;99.90
22081;DHT22;11207;59.512;18.050;2023-07-29T09:06:08;24.20;99.90
22081;DHT22;11207;59.512;18.050;2023-07-29T09:08:34;24.40;99.90
22081;DHT22;11207;59.512;18.050;2023-07-29T09:11:01;24.60;99.90
22081;DHT22;11207;59.512;18.050;2023-07-29T09:13:26;24.70;99.90
22081;DHT22;11207;59.512;18.050;2023-07-29T09:15:57;25.00;99.90
22081;DHT22;11207;59.512;18.050;2023-07-29T09:18:23;24.90;99.90
22081;DHT22;11207;59.512;18.050;2023-07-29T09:20:49;25.20;99.90
22081;DHT22;11207;59.512;18.050;2023-07-29T09:23:16;25.30;99.90
22081;DHT22;11207;59.512;18.050;2023-07-29T09:25:41;25.60;99.90
22081;DHT22;11207;59.512;18.050;2023-07-29T09:28:09;25.50;99.90
22081;DHT22;11207;59.512;18.050;2023-07-29T09:30:37;25.60;98.80
22081;DHT22;11207;59.512;18.050;2023-07-29T09:33:02;25.70;99.90
22081;DHT22;11207;59.512;18.050;2023-07-29T09:35:29;25.50;98.50
22081;DHT22;11207;59.512;18.050;2023-07-29T09:37:55;25.40;99.80
22081;DHT22;11207;59.512;18.050;2023-07-29T09:40:21;25.60;99.90
22081;DHT22;11207;59.512;18.050;2023-07-29T09:43:06;25.70;98.60
22081;DHT22;11207;59.512;18.050;2023-07-29T09:45:34;25.60;99.90
22081;DHT22;11207;59.512;18.050;2023-07-29T09:48:00;26.00;98.70
22081;DHT22;11207;59.512;18.050;2023-07-29T09:50:26;26.50;99.90
22081;DHT22;11207;59.512;18.050;2023-07-29T09:52:53;26.40;96.60
22081;DHT22;11207;59.512;18.050;2023-07-29T09:55:21;26.20;96.00
22081;DHT22;11207;59.512;18.050;2023-07-29T09:57:47;26.20;97.10
22081;DHT22;11207;59.512;18.050;2023-07-29T10:00:13;26.10;97.30
22081;DHT22;11207;59.512;18.050;2023-07-29T10:02:43;25.90;95.60
22081;DHT22;11207;59.512;18.050;2023-07-29T10:05:10;25.70;96.20
22081;DHT22;11207;59.512;18.050;2023-07-29T10:07:39;26.00;96.50
22081;DHT22;11207;59.512;18.050;2023-07-29T10:10:06;25.80;95.60
22081;DHT22;11207;59.512;18.050;2023-07-29T10:12:33;25.50;96.30
22081;DHT22;11207;59.512;18.050;2023-07-29T10:15:01;25.50;96.20
22081;DHT22;11207;59.512;18.050;2023-07-29T10:17:27;25.80;95.90
22081;DHT22;11207;59.512;18.050;2023-07-29T10:19:55;26.20;95.20
22081;DHT22;11207;59.512;18.050;2023-07-29T10:22:25;26.10;94.00
22081;DHT22;11207;59.512;18.050;2023-07-29T10:24:54;26.10;94.60
22081;DHT22;11207;59.512;18.050;2023-07-29T10:27:24;26.30;96.40
22081;DHT22;11207;59.512;18.050;2023-07-29T10:29:53;26.40;92.50
22081;DHT22;11207;59.512;18.050;2023-07-29T10:32:24;26.40;92.70
22081;DHT22;11207;59.512;18.050;2023-07-29T10:34:50;26.40;91.20
22081;DHT22;11207;59.512;18.050;2023-07-29T10:37:16;26.40;95.70
22081;DHT22;11207;59.512;18.050;2023-07-29T10:39:52;26.50;89.90
22081;DHT22;11207;59.512;18.050;2023-07-29T10:42:19;26.60;90.30
22081;DHT22;11207;59.512;18.050;2023-07-29T10:44:49;26.60;94.80
22081;DHT22;11207;59.512;18.050;2023-07-29T10:47:26;26.50;92.00
22081;DHT22;11207;59.512;18.050;2023-07-29T10:49:55;26.90;90.90
22081;DHT22;11207;59.512;18.050;2023-07-29T10:52:49;26.70;87.00
22081;DHT22;11207;59.512;18.050;2023-07-29T10:58:13;26.90;91.80
22081;DHT22;11207;59.512;18.050;2023-07-29T11:00:43;26.90;88.00
22081;DHT22;11207;59.512;18.050;2023-07-29T11:03:09;26.80;88.20
22081;DHT22;11207;59.512;18.050;2023-07-29T11:05:48;26.80;92.80
22081;DHT22;11207;59.512;18.050;2023-07-29T11:08:28;26.80;90.70
22081;DHT22;11207;59.512;18.050;2023-07-29T11:11:04;27.10;92.00
22081;DHT22;11207;59.512;18.050;2023-07-29T11:13:31;26.90;89.80
22081;DHT22;11207;59.512;18.050;2023-07-29T11:15:58;27.10;90.50
22081;DHT22;11207;59.512;18.050;2023-07-29T11:18:29;27.10;90.60
22081;DHT22;11207;59.512;18.050;2023-07-29T11:20:55;27.20;93.00
22081;DHT22;11207;59.512;18.050;2023-07-29T11:23:30;27.30;90.20
22081;DHT22;11207;59.512;18.050;2023-07-29T11:25:56;27.30;87.90
22081;DHT22;11207;59.512;18.050;2023-07-29T11:28:22;27.50;93.50
22081;DHT22;11207;59.512;18.050;2023-07-29T11:30:49;27.90;97.00
22081;DHT22;11207;59.512;18.050;2023-07-29T11:33:18;27.90;91.30
22081;DHT22;11207;59.512;18.050;2023-07-29T11:35:44;27.80;89.80
22081;DHT22;11207;59.512;18.050;2023-07-29T11:38:15;27.80;90.30
22081;DHT22;11207;59.512;18.050;2023-07-29T11:40:41;27.30;90.60
22081;DHT22;11207;59.512;18.050;2023-07-29T11:43:06;26.60;90.00
22081;DHT22;11207;59.512;18.050;2023-07-29T11:45:36;26.60;90.50
22081;DHT22;11207;59.512;18.050;2023-07-29T11:48:02;26.80;92.90
22081;DHT22;11207;59.512;18.050;2023-07-29T11:50:27;26.60;90.60
22081;DHT22;11207;59.512;18.050;2023-07-29T11:52:54;26.60;90.50
22081;DHT22;11207;59.512;18.050;2023-07-29T11:55:19;26.50;92.70
22081;DHT22;11207;59.512;18.050;2023-07-29T11:57:50;26.80;92.60
22081;DHT22;11207;59.512;18.050;2023-07-29T12:00:17;26.90;93.40
22081;DHT22;11207;59.512;18.050;2023-07-29T12:02:43;27.10;91.20
22081;DHT22;11207;59.512;18.050;2023-07-29T12:05:10;26.50;90.80
22081;DHT22;11207;59.512;18.050;2023-07-29T12:07:39;26.70;91.80
22081;DHT22;11207;59.512;18.050;2023-07-29T12:10:05;26.70;90.50
22081;DHT22;11207;59.512;18.050;2023-07-29T12:12:31;26.80;89.80
22081;DHT22;11207;59.512;18.050;2023-07-29T12:14:57;26.60;88.30
22081;DHT22;11207;59.512;18.050;2023-07-29T12:17:23;26.40;90.60
22081;DHT22;11207;59.512;18.050;2023-07-29T12:19:48;26.20;89.20
22081;DHT22;11207;59.512;18.050;2023-07-29T12:22:18;26.20;90.80
22081;DHT22;11207;59.512;18.050;2023-07-29T12:24:44;26.00;88.10
22081;DHT22;11207;59.512;18.050;2023-07-29T12:27:14;25.80;90.70
22081;DHT22;11207;59.512;18.050;2023-07-29T12:29:44;25.90;91.00
22081;DHT22;11207;59.512;18.050;2023-07-29T12:32:11;25.90;91.10
22081;DHT22;11207;59.512;18.050;2023-07-29T12:34:38;26.20;91.90
22081;DHT22;11207;59.512;18.050;2023-07-29T12:37:05;26.40;90.00
22081;DHT22;11207;59.512;18.050;2023-07-29T12:39:35;26.40;91.20
22081;DHT22;11207;59.512;18.050;2023-07-29T12:42:05;26.40;87.60
22081;DHT22;11207;59.512;18.050;2023-07-29T12:44:35;26.30;90.40
22081;DHT22;11207;59.512;18.050;2023-07-29T12:47:02;26.40;87.30
22081;DHT22;11207;59.512;18.050;2023-07-29T12:49:29;26.50;88.30
22081;DHT22;11207;59.512;18.050;2023-07-29T12:51:58;26.30;89.80
22081;DHT22;11207;59.512;18.050;2023-07-29T12:54:24;26.30;90.70
22081;DHT22;11207;59.512;18.050;2023-07-29T12:56:50;26.40;87.00
22081;DHT22;11207;59.512;18.050;2023-07-29T12:59:16;26.60;85.70
22081;DHT22;11207;59.512;18.050;2023-07-29T13:01:42;26.70;84.20
22081;DHT22;11207;59.512;18.050;2023-07-29T13:04:09;26.70;85.60
22081;DHT22;11207;59.512;18.050;2023-07-29T13:06:35;26.60;84.60
22081;DHT22;11207;59.512;18.050;2023-07-29T13:09:01;26.50;84.60
22081;DHT22;11207;59.512;18.050;2023-07-29T13:11:26;26.40;85.40
22081;DHT22;11207;59.512;18.050;2023-07-29T13:13:52;26.30;85.50
22081;DHT22;11207;59.512;18.050;2023-07-29T13:16:17;26.30;86.60
22081;DHT22;11207;59.512;18.050;2023-07-29T13:18:44;26.00;84.20
22081;DHT22;11207;59.512;18.050;2023-07-29T13:21:10;26.00;84.90
22081;DHT22;11207;59.512;18.050;2023-07-29T13:23:35;26.00;85.80
22081;DHT22;11207;59.512;18.050;2023-07-29T13:26:01;25.90;83.60
22081;DHT22;11207;59.512;18.050;2023-07-29T13:28:27;25.90;83.90
22081;DHT22;11207;59.512;18.050;2023-07-29T13:30:53;26.00;84.10
22081;DHT22;11207;59.512;18.050;2023-07-29T13:33:18;25.90;82.20
22081;DHT22;11207;59.512;18.050;2023-07-29T13:35:44;25.80;85.30
22081;DHT22;11207;59.512;18.050;2023-07-29T13:38:09;25.70;81.30
22081;DHT22;11207;59.512;18.050;2023-07-29T13:40:36;25.50;83.90
22081;DHT22;11207;59.512;18.050;2023-07-29T13:43:02;25.40;83.30
22081;DHT22;11207;59.512;18.050;2023-07-29T13:45:28;25.30;81.70
22081;DHT22;11207;59.512;18.050;2023-07-29T13:47:53;25.10;82.60
22081;DHT22;11207;59.512;18.050;2023-07-29T13:50:19;25.10;83.30
22081;DHT22;11207;59.512;18.050;2023-07-29T13:52:45;25.10;84.50
22081;DHT22;11207;59.512;18.050;2023-07-29T13:55:10;25.10;84.00
22081;DHT22;11207;59.512;18.050;2023-07-29T13:57:37;25.10;86.20
22081;DHT22;11207;59.512;18.050;2023-07-29T14:00:04;25.30;84.70
22081;DHT22;11207;59.512;18.050;2023-07-29T14:02:30;25.20;82.00
22081;DHT22;11207;59.512;18.050;2023-07-29T14:04:56;25.10;82.20
22081;DHT22;11207;59.512;18.050;2023-07-29T14:07:22;25.00;78.10
22081;DHT22;11207;59.512;18.050;2023-07-29T14:09:48;25.00;78.20
22081;DHT22;11207;59.512;18.050;2023-07-29T14:12:13;24.90;78.00
22081;DHT22;11207;59.512;18.050;2023-07-29T14:14:41;24.90;78.50
22081;DHT22;11207;59.512;18.050;2023-07-29T14:17:07;24.70;77.70
22081;DHT22;11207;59.512;18.050;2023-07-29T14:19:34;24.70;78.90
22081;DHT22;11207;59.512;18.050;2023-07-29T14:21:59;24.70;79.10
22081;DHT22;11207;59.512;18.050;2023-07-29T14:24:25;24.70;80.50
22081;DHT22;11207;59.512;18.050;2023-07-29T14:26:51;24.70;80.60
22081;DHT22;11207;59.512;18.050;2023-07-29T14:29:16;24.60;81.10
22081;DHT22;11207;59.512;18.050;2023-07-29T14:31:42;24.60;80.10
22081;DHT22;11207;59.512;18.050;2023-07-29T14:34:07;24.50;80.40
22081;DHT22;11207;59.512;18.050;2023-07-29T14:36:33;24.40;82.60
22081;DHT22;11207;59.512;18.050;2023-07-29T14:38:58;24.40;81.80
22081;DHT22;11207;59.512;18.050;2023-07-29T14:41:24;24.40;83.90
22081;DHT22;11207;59.512;18.050;2023-07-29T14:43:50;24.40;80.60
22081;DHT22;11207;59.512;18.050;2023-07-29T14:46:15;24.30;82.20
22081;DHT22;11207;59.512;18.050;2023-07-29T14:48:41;24.30;83.30
22081;DHT22;11207;59.512;18.050;2023-07-29T14:51:07;24.30;85.30
22081;DHT22;11207;59.512;18.050;2023-07-29T14:53:32;24.40;87.60
22081;DHT22;11207;59.512;18.050;2023-07-29T14:55:58;24.40;87.30
22081;DHT22;11207;59.512;18.050;2023-07-29T14:58:23;24.30;84.40
22081;DHT22;11207;59.512;18.050;2023-07-29T15:00:51;24.30;87.00
22081;DHT22;11207;59.512;18.050;2023-07-29T15:03:17;24.20;87.10
22081;DHT22;11207;59.512;18.050;2023-07-29T15:05:43;24.20;86.60
22081;DHT22;11207;59.512;18.050;2023-07-29T15:08:09;24.10;87.40
22081;DHT22;11207;59.512;18.050;2023-07-29T15:10:34;24.10;87.60
22081;DHT22;11207;59.512;18.050;2023-07-29T15:13:00;24.10;90.20
22081;DHT22;11207;59.512;18.050;2023-07-29T15:15:26;24.20;89.10
22081;DHT22;11207;59.512;18.050;2023-07-29T15:17:51;24.20;89.10
22081;DHT22;11207;59.512;18.050;2023-07-29T15:20:17;24.20;88.10